Time;durP1;ratioP1;P1;durP2;ratioP2;P2;SDS_P1;SDS_P2;PMS_P1;PMS_P2;Temp;Humidity;BMP_temperature;BMP_pressure;BME280_temperature;BME280_humidity;BME280_pressure;Samples;Min_cycle;Max_cycle;Signal;HPM_P1;HPM_P2
2023/01/25 00:01:41;;;;;;;12.60;10.37;;;3.30;99.90;;;;;;5114863;27;20193;-89
2023/01/25 00:04:07;;;;;;;13.70;10.73;;;3.30;99.90;;;;;;5099672;28;20257;-89
2023/01/25 00:06:33;;;;;;;13.93;9.97;;;3.30;99.90;;;;;;5108608;28;20170;-89
2023/01/25 00:08:58;;;;;;;12.27;10.37;;;3.20;99.90;;;;;;5118931;28;20209;-88
2023/01/25 00:11:24;;;;;;;12.60;10.07;;;3.20;99.90;;;;;;5119495;28;20185;-89
2023/01/25 00:13:53;;;;;;;13.63;10.43;;;3.20;99.90;;;;;;5120323;28;20182;-88
2023/01/25 00:16:18;;;;;;;14.60;11.47;;;3.20;99.90;;;;;;5119752;28;20224;-90
2023/01/25 00:18:44;;;;;;;12.27;10.77;;;3.20;99.90;;;;;;5120463;28;20414;-89
2023/01/25 00:21:24;;;;;;;13.40;10.87;;;3.20;99.90;;;;;;5120340;28;20268;-90
2023/01/25 00:23:50;;;;;;;12.83;10.77;;;3.20;99.90;;;;;;5120211;28;20196;-89
2023/01/25 00:26:16;;;;;;;12.67;10.63;;;3.20;99.90;;;;;;5121391;28;20233;-89
2023/01/25 00:28:41;;;;;;;13.20;10.60;;;3.10;99.90;;;;;;5125208;28;20198;-90
2023/01/25 00:31:15;;;;;;;14.70;11.07;;;3.10;99.90;;;;;;5131524;28;20186;-88
2023/01/25 00:33:51;;;;;;;14.63;10.70;;;3.10;99.90;;;;;;5132367;28;20190;-89
2023/01/25 00:36:37;;;;;;;15.63;11.10;;;3.00;99.90;;;;;;5114344;28;20179;-89
2023/01/25 00:39:04;;;;;;;13.83;10.60;;;3.00;99.90;;;;;;5110795;28;20218;-91
2023/01/25 00:41:30;;;;;;;13.17;10.90;;;3.00;99.90;;;;;;5117192;28;20186;-89
2023/01/25 00:43:56;;;;;;;12.23;10.80;;;3.00;99.90;;;;;;5117747;28;20186;-90
2023/01/25 00:46:22;;;;;;;15.70;11.43;;;3.00;99.90;;;;;;5118252;28;20196;-89
2023/01/25 00:48:48;;;;;;;15.33;11.17;;;3.00;99.90;;;;;;5119814;28;20276;-89
2023/01/25 00:51:14;;;;;;;13.20;10.87;;;3.00;99.90;;;;;;5116738;28;20174;-88
2023/01/25 00:53:40;;;;;;;12.57;11.00;;;3.10;99.90;;;;;;5117709;28;20185;-89
2023/01/25 00:56:06;;;;;;;11.97;10.13;;;3.10;99.90;;;;;;5118943;28;20239;-89
2023/01/25 00:58:32;;;;;;;13.90;11.03;;;3.00;99.90;;;;;;5118974;28;20218;-88
2023/01/25 01:01:00;;;;;;;13.77;11.70;;;3.10;99.90;;;;;;5120013;28;20232;-89
2023/01/25 01:03:25;;;;;;;16.93;11.53;;;3.00;99.90;;;;;;5101046;28;20640;-89
2023/01/25 01:06:09;;;;;;;13.00;9.97;;;3.00;99.90;;;;;;5099244;28;20182;-89
2023/01/25 01:08:39;;;;;;;14.77;11.07;;;3.00;99.90;;;;;;5100188;28;20214;-89
2023/01/25 01:11:08;;;;;;;11.63;10.17;;;3.00;99.90;;;;;;5107254;28;20189;-91
2023/01/25 01:13:34;;;;;;;14.03;10.60;;;3.00;99.90;;;;;;5125424;28;20253;-91
2023/01/25 01:16:02;;;;;;;13.33;11.93;;;3.00;99.90;;;;;;5115042;28;20206;-89
2023/01/25 01:18:32;;;;;;;14.00;10.50;;;3.00;99.90;;;;;;5112414;28;20664;-89
2023/01/25 01:20:57;;;;;;;14.33;11.60;;;3.00;99.90;;;;;;5111623;28;20220;-89
2023/01/25 01:23:23;;;;;;;15.70;11.67;;;3.10;99.90;;;;;;5106076;28;20616;-89
2023/01/25 01:25:49;;;;;;;12.80;11.33;;;3.10;99.90;;;;;;5097791;28;20187;-90
2023/01/25 01:28:15;;;;;;;13.57;11.33;;;3.10;99.90;;;;;;5108947;28;20201;-90
2023/01/25 01:30:41;;;;;;;15.13;11.13;;;3.10;99.90;;;;;;5109003;28;20179;-88
2023/01/25 01:33:07;;;;;;;14.33;11.67;;;3.10;99.90;;;;;;5116778;28;20230;-88
2023/01/25 01:35:33;;;;;;;14.00;11.90;;;3.10;99.90;;;;;;5116389;28;20178;-90
2023/01/25 01:37:59;;;;;;;11.53;10.23;;;3.10;99.90;;;;;;5117267;28;20210;-91
2023/01/25 01:40:25;;;;;;;13.07;10.63;;;3.10;99.90;;;;;;5117434;28;20663;-90
2023/01/25 01:43:16;;;;;;;13.20;11.50;;;3.10;99.90;;;;;;5116160;28;20291;-89
2023/01/25 01:45:48;;;;;;;13.13;11.67;;;3.10;99.90;;;;;;5118947;28;20277;-89
2023/01/25 01:48:21;;;;;;;15.17;11.93;;;3.10;99.90;;;;;;5122012;28;20205;-91
2023/01/25 01:50:51;;;;;;;13.80;11.33;;;3.10;99.90;;;;;;5121684;28;20182;-90
2023/01/25 01:53:16;;;;;;;13.27;10.90;;;3.10;99.90;;;;;;5122935;28;20403;-89
2023/01/25 01:55:42;;;;;;;12.17;10.53;;;3.10;99.90;;;;;;5122780;28;20186;-89
2023/01/25 01:58:08;;;;;;;12.93;10.90;;;3.20;99.90;;;;;;5121724;28;20214;-88
2023/01/25 02:00:38;;;;;;;15.57;11.43;;;3.20;99.90;;;;;;5123608;28;20178;-90
2023/01/25 02:03:04;;;;;;;15.13;12.23;;;3.10;99.90;;;;;;5107377;28;20163;-90
2023/01/25 02:05:40;;;;;;;13.57;11.67;;;3.10;99.90;;;;;;5101667;28;20209;-91
2023/01/25 02:08:09;;;;;;;15.27;12.40;;;3.10;99.90;;;;;;5102312;28;20691;-91
2023/01/25 02:10:37;;;;;;;16.63;11.97;;;3.10;99.90;;;;;;5107336;28;20179;-89
2023/01/25 02:13:02;;;;;;;14.07;11.80;;;3.10;99.90;;;;;;5113946;28;20254;-91
2023/01/25 02:15:37;;;;;;;11.67;10.43;;;3.10;99.90;;;;;;5123086;28;20213;-89
2023/01/25 02:18:03;;;;;;;15.27;11.93;;;3.10;99.90;;;;;;5122251;28;20217;-89
2023/01/25 02:20:36;;;;;;;16.53;12.57;;;3.10;99.90;;;;;;5123518;27;20531;-89
2023/01/25 02:23:04;;;;;;;16.57;12.90;;;3.10;99.90;;;;;;5123518;28;20158;-89
2023/01/25 02:25:30;;;;;;;13.03;10.93;;;3.10;99.90;;;;;;5114241;28;20195;-89
2023/01/25 02:28:05;;;;;;;12.67;11.27;;;3.10;99.90;;;;;;5117268;28;20202;-89
2023/01/25 02:30:32;;;;;;;14.63;11.90;;;3.10;99.90;;;;;;5102945;28;20166;-91
2023/01/25 02:32:58;;;;;;;14.17;11.23;;;3.10;99.90;;;;;;5101814;28;20179;-89
2023/01/25 02:35:55;;;;;;;14.23;11.77;;;3.10;99.90;;;;;;5099715;28;20245;-92
2023/01/25 02:38:21;;;;;;;14.20;11.80;;;3.10;99.90;;;;;;5100670;28;20815;-89
2023/01/25 02:41:07;;;;;;;15.77;12.73;;;3.10;99.90;;;;;;5111814;28;20421;-88
2023/01/25 02:43:34;;;;;;;12.90;10.93;;;3.10;99.90;;;;;;5119715;28;20639;-90
2023/01/25 02:46:10;;;;;;;13.17;11.00;;;3.10;99.90;;;;;;5118040;28;20926;-89
2023/01/25 02:48:36;;;;;;;15.10;11.60;;;3.10;99.90;;;;;;5121008;28;20217;-89
2023/01/25 02:51:05;;;;;;;16.40;11.23;;;3.10;99.90;;;;;;5121312;28;20257;-90
2023/01/25 02:53:30;;;;;;;14.83;11.50;;;3.00;99.90;;;;;;5123091;28;20752;-89
2023/01/25 02:55:59;;;;;;;16.83;12.23;;;3.00;99.90;;;;;;5122439;28;20205;-89
2023/01/25 02:58:24;;;;;;;13.00;11.60;;;3.00;99.90;;;;;;5122071;28;20214;-89
2023/01/25 03:00:50;;;;;;;14.53;12.33;;;3.00;99.90;;;;;;5122694;28;20314;-91
2023/01/25 03:03:16;;;;;;;15.00;11.73;;;3.00;99.90;;;;;;5104452;28;20187;-88
2023/01/25 03:05:42;;;;;;;15.07;12.10;;;3.10;99.90;;;;;;5102721;28;20170;-90
2023/01/25 03:08:08;;;;;;;16.13;12.23;;;3.10;99.90;;;;;;5101269;28;20695;-89
2023/01/25 03:10:34;;;;;;;15.10;12.47;;;3.10;99.90;;;;;;5105631;28;20170;-89
2023/01/25 03:12:59;;;;;;;16.70;13.00;;;3.00;99.90;;;;;;5114120;28;20236;-88
2023/01/25 03:15:25;;;;;;;15.80;12.23;;;3.00;99.90;;;;;;5099202;28;20183;-89
2023/01/25 03:17:51;;;;;;;15.87;12.80;;;2.90;99.90;;;;;;5100224;28;20297;-88
2023/01/25 03:20:16;;;;;;;17.27;12.13;;;2.90;99.90;;;;;;5100340;28;20646;-89
2023/01/25 03:22:42;;;;;;;15.83;12.93;;;2.90;99.90;;;;;;5114018;28;20187;-89
2023/01/25 03:25:08;;;;;;;15.77;12.37;;;2.90;99.90;;;;;;5116268;28;20182;-90
2023/01/25 03:27:33;;;;;;;14.37;12.10;;;2.90;99.90;;;;;;5119515;28;20202;-88
2023/01/25 03:29:59;;;;;;;16.07;12.20;;;2.90;99.90;;;;;;5118910;28;20226;-89
2023/01/25 03:32:25;;;;;;;16.60;12.57;;;2.90;99.90;;;;;;5118111;28;20170;-88
2023/01/25 03:34:50;;;;;;;14.47;11.47;;;2.90;99.90;;;;;;5119759;28;20197;-90
2023/01/25 03:37:16;;;;;;;13.40;12.00;;;2.90;99.90;;;;;;5119582;28;20213;-90
2023/01/25 03:39:42;;;;;;;14.50;12.80;;;2.90;99.90;;;;;;5120762;28;20177;-90
2023/01/25 03:42:08;;;;;;;15.90;12.57;;;2.90;99.90;;;;;;5120299;28;20174;-91
2023/01/25 03:44:33;;;;;;;17.20;12.43;;;2.90;99.90;;;;;;5120055;28;20178;-89
2023/01/25 03:46:59;;;;;;;13.73;11.90;;;2.90;99.90;;;;;;5120878;28;20178;-89
2023/01/25 03:49:25;;;;;;;14.80;11.70;;;2.90;99.90;;;;;;5114616;28;20203;-88
2023/01/25 03:51:50;;;;;;;14.70;12.60;;;2.90;99.90;;;;;;5101614;28;20178;-89
2023/01/25 03:54:16;;;;;;;16.30;12.47;;;2.90;99.90;;;;;;5101584;28;20204;-90
2023/01/25 03:56:41;;;;;;;14.50;12.93;;;2.90;99.90;;;;;;5100150;28;20220;-89
2023/01/25 03:59:07;;;;;;;16.37;12.87;;;2.90;99.90;;;;;;5099489;28;20309;-87
2023/01/25 04:01:33;;;;;;;14.80;11.67;;;2.90;99.90;;;;;;5107894;28;20198;-88
2023/01/25 04:03:58;;;;;;;15.03;12.10;;;2.90;99.90;;;;;;5114893;28;20200;-90
2023/01/25 04:06:24;;;;;;;15.37;11.67;;;2.90;99.90;;;;;;5121202;28;20250;-89
2023/01/25 04:08:49;;;;;;;15.03;12.47;;;2.90;99.90;;;;;;5120828;28;20236;-90
2023/01/25 04:11:15;;;;;;;16.27;12.50;;;2.90;99.90;;;;;;5120395;28;20171;-89
2023/01/25 04:13:41;;;;;;;15.57;12.17;;;2.90;99.90;;;;;;5121593;28;20203;-89
2023/01/25 04:16:10;;;;;;;15.07;12.33;;;2.90;99.90;;;;;;5121695;28;20178;-90
2023/01/25 04:18:36;;;;;;;16.33;11.90;;;2.90;99.90;;;;;;5117085;28;20214;-89
2023/01/25 04:21:02;;;;;;;15.97;13.03;;;2.90;99.90;;;;;;5120251;28;20182;-90
2023/01/25 04:23:28;;;;;;;16.93;12.90;;;2.90;99.90;;;;;;5121267;28;20166;-89
2023/01/25 04:25:57;;;;;;;15.90;11.87;;;2.90;99.90;;;;;;5121255;28;20178;-89
2023/01/25 04:28:23;;;;;;;14.13;12.03;;;2.90;99.90;;;;;;5118961;28;20202;-90
2023/01/25 04:30:49;;;;;;;15.83;12.13;;;2.90;99.90;;;;;;5117810;28;20174;-89
2023/01/25 04:33:15;;;;;;;15.63;12.77;;;2.90;99.90;;;;;;5117584;28;20187;-88
2023/01/25 04:35:41;;;;;;;16.57;13.87;;;2.80;99.90;;;;;;5114767;28;20185;-89
2023/01/25 04:38:08;;;;;;;15.03;12.20;;;2.90;99.90;;;;;;5116504;28;20229;-89
2023/01/25 04:40:34;;;;;;;17.20;12.33;;;2.80;99.90;;;;;;5118732;28;20175;-88
2023/01/25 04:42:59;;;;;;;16.07;12.77;;;2.80;99.90;;;;;;5115464;28;20193;-88
2023/01/25 04:45:25;;;;;;;18.80;12.77;;;2.80;99.90;;;;;;5117144;28;20176;-88
2023/01/25 04:47:59;;;;;;;16.90;13.27;;;2.80;99.90;;;;;;5117960;28;20637;-87
2023/01/25 04:50:26;;;;;;;15.10;12.23;;;2.80;99.90;;;;;;5122133;28;20695;-90
2023/01/25 04:52:52;;;;;;;14.77;12.67;;;2.90;99.90;;;;;;5137016;28;20174;-88
2023/01/25 04:55:18;;;;;;;16.03;11.77;;;2.80;99.90;;;;;;5135077;28;20186;-89
2023/01/25 04:57:44;;;;;;;14.07;11.47;;;2.90;99.90;;;;;;5133463;28;20202;-90
2023/01/25 05:00:10;;;;;;;14.43;11.80;;;2.90;99.90;;;;;;5132819;28;20174;-88
2023/01/25 05:02:36;;;;;;;18.77;12.70;;;2.90;99.90;;;;;;5107119;28;20281;-88
2023/01/25 05:05:02;;;;;;;15.53;12.97;;;2.80;99.90;;;;;;5099441;28;20194;-88
2023/01/25 05:07:28;;;;;;;14.90;12.20;;;2.80;99.90;;;;;;5118161;28;20188;-88
2023/01/25 05:09:53;;;;;;;17.80;13.30;;;2.80;99.90;;;;;;5127751;28;20174;-88
2023/01/25 05:12:19;;;;;;;17.37;12.70;;;2.80;99.90;;;;;;5123491;28;20194;-87
2023/01/25 05:14:44;;;;;;;15.23;13.10;;;2.70;99.90;;;;;;5123709;28;20205;-89
2023/01/25 05:17:10;;;;;;;16.50;12.60;;;2.60;99.90;;;;;;5124904;28;20247;-87
2023/01/25 05:19:36;;;;;;;16.70;12.03;;;2.60;99.90;;;;;;5120485;28;20229;-90
2023/01/25 05:22:06;;;;;;;19.37;13.87;;;2.60;99.90;;;;;;5123011;28;20718;-89
2023/01/25 05:24:33;;;;;;;14.20;11.23;;;2.70;99.90;;;;;;5121491;28;20170;-88
2023/01/25 05:27:00;;;;;;;13.57;11.67;;;2.60;99.90;;;;;;5121496;28;20170;-90
2023/01/25 05:29:36;;;;;;;15.97;12.83;;;2.60;99.90;;;;;;5121315;28;20335;-90
2023/01/25 05:32:13;;;;;;;15.30;12.57;;;2.50;99.90;;;;;;5122546;28;20161;-89
2023/01/25 05:34:40;;;;;;;16.00;12.30;;;2.50;99.90;;;;;;5121457;28;20520;-92
2023/01/25 05:37:09;;;;;;;14.37;12.37;;;2.50;99.90;;;;;;5121457;28;20680;-85
2023/01/25 05:39:34;;;;;;;16.57;13.43;;;2.50;99.90;;;;;;5120118;28;20200;-86
2023/01/25 05:42:03;;;;;;;16.30;11.93;;;2.40;99.90;;;;;;5122585;28;20229;-86
2023/01/25 05:44:28;;;;;;;18.93;13.53;;;2.40;99.90;;;;;;5121800;28;20241;-85
2023/01/25 05:46:54;;;;;;;14.97;12.67;;;2.40;99.90;;;;;;5121896;28;20620;-84
2023/01/25 05:49:20;;;;;;;16.23;13.03;;;2.40;99.90;;;;;;5120043;28;20220;-87
2023/01/25 05:51:46;;;;;;;17.63;12.70;;;2.50;99.90;;;;;;5119678;28;20337;-86
2023/01/25 05:54:16;;;;;;;18.50;12.73;;;2.40;99.90;;;;;;5119898;28;20244;-86
2023/01/25 05:56:42;;;;;;;15.67;12.47;;;2.40;99.90;;;;;;5119919;28;20423;-86
2023/01/25 05:59:10;;;;;;;16.90;12.97;;;2.40;99.90;;;;;;5122605;28;20218;-87
2023/01/25 06:01:36;;;;;;;16.83;12.27;;;2.40;99.90;;;;;;5120748;28;20199;-86
2023/01/25 06:04:02;;;;;;;14.90;11.87;;;2.40;99.90;;;;;;5120400;28;20174;-86
2023/01/25 06:06:28;;;;;;;14.83;12.70;;;2.40;99.90;;;;;;5122548;28;20185;-85
2023/01/25 06:08:53;;;;;;;15.27;12.07;;;2.30;99.90;;;;;;5116417;28;20210;-86
2023/01/25 06:11:22;;;;;;;15.40;11.77;;;2.30;99.90;;;;;;5094473;28;20237;-88
2023/01/25 06:13:48;;;;;;;20.20;15.00;;;2.30;99.90;;;;;;5112982;28;20204;-88
2023/01/25 06:16:14;;;;;;;14.53;12.20;;;2.30;99.90;;;;;;5096809;28;20198;-87
2023/01/25 06:18:41;;;;;;;16.53;12.53;;;2.30;99.90;;;;;;5104434;28;20206;-87
2023/01/25 06:21:06;;;;;;;16.70;12.73;;;2.40;99.90;;;;;;5103322;28;20175;-87
2023/01/25 06:23:32;;;;;;;16.13;12.83;;;2.40;99.90;;;;;;5108613;28;20194;-88
2023/01/25 06:25:59;;;;;;;17.20;12.90;;;2.50;99.90;;;;;;5106878;28;20756;-88
2023/01/25 06:28:25;;;;;;;16.03;13.23;;;2.50;99.90;;;;;;5113535;28;20213;-86
2023/01/25 06:30:51;;;;;;;15.87;12.17;;;2.50;99.90;;;;;;5101849;28;20195;-86
2023/01/25 06:33:17;;;;;;;16.33;12.63;;;2.50;99.90;;;;;;5101146;28;20182;-86
2023/01/25 06:35:43;;;;;;;18.20;14.07;;;2.40;99.90;;;;;;5101063;28;20183;-86
2023/01/25 06:38:14;;;;;;;20.37;17.53;;;2.40;99.90;;;;;;5103755;28;20210;-86
2023/01/25 06:40:40;;;;;;;20.47;16.53;;;2.30;99.90;;;;;;5122999;28;20603;-88
2023/01/25 06:43:10;;;;;;;18.37;13.67;;;2.30;99.90;;;;;;5120322;28;20250;-87
2023/01/25 06:45:37;;;;;;;16.93;13.83;;;2.30;99.90;;;;;;5120491;28;20198;-87
2023/01/25 06:48:03;;;;;;;18.20;14.57;;;2.30;99.90;;;;;;5118264;28;20190;-89
2023/01/25 06:50:29;;;;;;;17.40;13.40;;;2.30;99.90;;;;;;5106686;28;20190;-87
2023/01/25 06:52:55;;;;;;;14.93;12.87;;;2.30;99.90;;;;;;5118111;28;20179;-88
2023/01/25 06:55:21;;;;;;;15.73;11.57;;;2.30;99.90;;;;;;5118437;28;20360;-89
2023/01/25 06:57:47;;;;;;;14.93;11.87;;;2.20;99.90;;;;;;5119443;28;20757;-87
2023/01/25 07:00:14;;;;;;;17.30;14.00;;;2.20;99.90;;;;;;5119228;28;20175;-88
2023/01/25 07:02:40;;;;;;;16.93;12.00;;;2.30;99.90;;;;;;5119376;28;20177;-87
2023/01/25 07:05:07;;;;;;;16.80;13.83;;;2.30;99.90;;;;;;5117306;28;20178;-88
2023/01/25 07:07:32;;;;;;;18.80;14.13;;;2.30;99.90;;;;;;5114823;28;20191;-87
2023/01/25 07:09:59;;;;;;;20.93;17.00;;;2.30;99.90;;;;;;5103909;28;20263;-87
2023/01/25 07:12:25;;;;;;;14.70;12.40;;;2.30;99.90;;;;;;5113811;28;20186;-87
2023/01/25 07:14:50;;;;;;;16.73;13.10;;;2.30;99.90;;;;;;5117897;28;20178;-87
2023/01/25 07:17:17;;;;;;;18.13;12.97;;;2.30;99.90;;;;;;5119115;28;20250;-87
2023/01/25 07:19:42;;;;;;;18.93;14.80;;;2.20;99.90;;;;;;5113590;28;20544;-87
2023/01/25 07:22:08;;;;;;;17.27;13.80;;;2.20;99.90;;;;;;5119348;28;20223;-85
2023/01/25 07:24:33;;;;;;;18.33;13.83;;;2.10;99.90;;;;;;5117456;28;20631;-87
2023/01/25 07:26:59;;;;;;;16.20;12.43;;;2.10;99.90;;;;;;5122063;28;20224;-87
2023/01/25 07:29:25;;;;;;;15.47;12.40;;;2.00;99.90;;;;;;5117192;28;20195;-87
2023/01/25 07:31:50;;;;;;;19.00;14.23;;;2.10;99.90;;;;;;5117882;28;20190;-86
2023/01/25 07:34:16;;;;;;;17.00;13.57;;;2.20;99.90;;;;;;5117309;28;20182;-86
2023/01/25 07:36:45;;;;;;;18.57;14.17;;;2.10;99.90;;;;;;5117067;28;20178;-87
2023/01/25 07:39:12;;;;;;;14.97;11.90;;;2.00;99.90;;;;;;5119089;28;20852;-87
2023/01/25 07:41:38;;;;;;;17.50;12.77;;;2.00;99.90;;;;;;5115914;28;20176;-91
2023/01/25 07:44:04;;;;;;;19.13;14.07;;;2.00;99.90;;;;;;5116399;28;20226;-88
2023/01/25 07:46:29;;;;;;;18.20;13.90;;;2.10;99.90;;;;;;5115729;27;20174;-87
2023/01/25 07:48:57;;;;;;;17.37;13.13;;;2.10;99.90;;;;;;5116952;28;20202;-87
2023/01/25 07:51:26;;;;;;;19.50;13.57;;;2.10;99.90;;;;;;5115726;28;20216;-87
2023/01/25 07:54:00;;;;;;;19.73;12.97;;;2.10;99.90;;;;;;5118852;28;20228;-88
2023/01/25 07:56:29;;;;;;;17.30;12.87;;;2.20;99.90;;;;;;5118583;28;20185;-87
2023/01/25 07:58:56;;;;;;;17.70;12.93;;;2.20;99.90;;;;;;5115258;28;20214;-87
2023/01/25 08:01:25;;;;;;;19.03;11.97;;;2.20;99.90;;;;;;5117994;28;20235;-85
2023/01/25 08:03:51;;;;;;;16.17;12.43;;;2.20;99.90;;;;;;5110981;28;20191;-87
2023/01/25 08:06:26;;;;;;;15.80;12.30;;;2.30;99.90;;;;;;5101059;28;20183;-87
2023/01/25 08:08:52;;;;;;;21.53;15.77;;;2.30;99.90;;;;;;5109453;28;20205;-88
2023/01/25 08:11:21;;;;;;;16.40;12.07;;;2.20;99.90;;;;;;5122047;28;20239;-87
2023/01/25 08:13:48;;;;;;;17.93;12.60;;;2.30;99.90;;;;;;5121005;28;20194;-87
2023/01/25 08:16:16;;;;;;;16.63;12.23;;;2.30;99.90;;;;;;5120334;28;20186;-87
2023/01/25 08:18:42;;;;;;;16.13;12.33;;;2.20;99.90;;;;;;5123589;28;20202;-88
2023/01/25 08:21:10;;;;;;;16.60;12.03;;;2.20;99.90;;;;;;5121879;28;20301;-87
2023/01/25 08:23:36;;;;;;;18.60;14.20;;;2.20;99.90;;;;;;5114352;28;20189;-88
2023/01/25 08:26:03;;;;;;;16.37;13.07;;;2.20;99.90;;;;;;5121348;28;20194;-91
2023/01/25 08:28:29;;;;;;;17.70;13.60;;;2.30;99.90;;;;;;5117669;28;20199;-89
2023/01/25 08:31:07;;;;;;;18.50;13.50;;;2.30;99.90;;;;;;5121704;28;20204;-89
2023/01/25 08:33:32;;;;;;;15.43;12.57;;;2.40;99.90;;;;;;5122141;28;20178;-87
2023/01/25 08:35:58;;;;;;;17.03;13.17;;;2.40;99.90;;;;;;5120397;28;20174;-87
2023/01/25 08:38:24;;;;;;;17.30;12.63;;;2.40;99.90;;;;;;5121836;28;20243;-88
2023/01/25 08:40:49;;;;;;;15.53;13.73;;;2.40;99.90;;;;;;5122578;28;20734;-88
2023/01/25 08:43:15;;;;;;;16.30;13.03;;;2.40;99.90;;;;;;5124899;28;20223;-88
2023/01/25 08:45:41;;;;;;;19.63;13.87;;;2.40;99.90;;;;;;5120751;28;20259;-88
2023/01/25 08:48:06;;;;;;;16.23;12.77;;;2.40;99.90;;;;;;5120040;28;20249;-91
2023/01/25 08:50:32;;;;;;;16.70;14.40;;;2.40;99.90;;;;;;5103954;28;20178;-87
2023/01/25 08:52:58;;;;;;;15.80;12.57;;;2.40;99.90;;;;;;5121150;28;20190;-90
2023/01/25 08:55:23;;;;;;;18.53;13.00;;;2.40;99.90;;;;;;5120705;28;20208;-87
2023/01/25 08:57:49;;;;;;;21.87;14.87;;;2.50;99.90;;;;;;5119798;28;20223;-87
2023/01/25 09:00:17;;;;;;;18.70;14.10;;;2.50;99.90;;;;;;5113412;28;20183;-88
2023/01/25 09:02:43;;;;;;;18.43;12.87;;;2.40;99.90;;;;;;5115154;28;20357;-88
2023/01/25 09:05:09;;;;;;;19.33;13.33;;;2.40;99.90;;;;;;5122415;28;20211;-89
2023/01/25 09:07:37;;;;;;;19.43;13.07;;;2.40;99.90;;;;;;5122862;28;20190;-87
2023/01/25 09:10:07;;;;;;;19.20;13.90;;;2.40;99.90;;;;;;5121323;28;20213;-88
2023/01/25 09:12:33;;;;;;;16.50;12.90;;;2.40;99.90;;;;;;5122217;28;20178;-87
2023/01/25 09:14:59;;;;;;;19.77;14.67;;;2.40;99.90;;;;;;5122506;28;20261;-86
2023/01/25 09:17:25;;;;;;;22.47;13.67;;;2.40;99.90;;;;;;5122502;28;20327;-89
2023/01/25 09:19:51;;;;;;;17.63;13.00;;;2.40;99.90;;;;;;5121376;28;20265;-88
2023/01/25 09:22:16;;;;;;;22.57;14.10;;;2.40;99.90;;;;;;5110647;28;20213;-86
2023/01/25 09:24:42;;;;;;;22.90;13.97;;;2.40;99.90;;;;;;5117941;28;20632;-88
2023/01/25 09:27:08;;;;;;;19.23;13.27;;;2.40;99.90;;;;;;5124378;28;20219;-88
2023/01/25 09:29:33;;;;;;;19.97;13.53;;;2.40;99.90;;;;;;5106060;28;20210;-88
2023/01/25 09:31:59;;;;;;;18.93;13.10;;;2.40;99.90;;;;;;5114153;28;20194;-87
2023/01/25 09:34:25;;;;;;;15.87;12.93;;;2.50;99.90;;;;;;5121763;28;20644;-88
2023/01/25 09:36:50;;;;;;;21.13;13.23;;;2.50;99.90;;;;;;5123064;28;20269;-88
2023/01/25 09:39:16;;;;;;;16.73;12.83;;;2.50;99.90;;;;;;5122351;28;20206;-88
2023/01/25 09:42:03;;;;;;;23.37;14.17;;;2.50;99.90;;;;;;5124870;28;20212;-88
2023/01/25 09:44:40;;;;;;;18.00;13.13;;;2.50;99.90;;;;;;5126674;28;20166;-90
2023/01/25 09:47:18;;;;;;;17.07;12.80;;;2.40;99.90;;;;;;5135325;28;20191;-88
2023/01/25 09:50:05;;;;;;;17.90;12.63;;;2.40;99.90;;;;;;5136298;28;20182;-90
2023/01/25 09:52:49;;;;;;;17.30;13.83;;;2.50;99.90;;;;;;5130167;28;20180;-90
2023/01/25 09:55:17;;;;;;;18.97;14.47;;;2.40;99.90;;;;;;5135723;28;20230;-90
2023/01/25 09:57:45;;;;;;;18.10;13.03;;;2.50;99.90;;;;;;5125376;28;20213;-88
2023/01/25 10:00:22;;;;;;;18.07;14.47;;;2.60;99.90;;;;;;5134274;28;20189;-91
2023/01/25 10:02:54;;;;;;;17.00;13.20;;;2.60;99.90;;;;;;5136180;28;20197;-89
2023/01/25 10:05:24;;;;;;;19.20;12.83;;;2.60;99.90;;;;;;5138175;28;20192;-88
2023/01/25 10:08:02;;;;;;;19.03;13.27;;;2.60;99.90;;;;;;5127191;28;20210;-88
2023/01/25 10:10:39;;;;;;;16.40;11.70;;;2.60;99.90;;;;;;5128326;28;20163;-88
2023/01/25 10:13:17;;;;;;;16.53;12.23;;;2.70;99.90;;;;;;5129509;28;20220;-88
2023/01/25 10:16:13;;;;;;;15.77;12.70;;;2.60;99.90;;;;;;5127655;28;20241;-88
2023/01/25 10:18:49;;;;;;;16.83;12.90;;;2.60;99.90;;;;;;5128405;28;20224;-88
2023/01/25 10:21:28;;;;;;;17.10;13.37;;;2.60;99.90;;;;;;5127590;28;20182;-89
2023/01/25 10:24:22;;;;;;;17.60;13.70;;;2.60;99.90;;;;;;5120183;28;20182;-90
2023/01/25 10:26:55;;;;;;;17.20;13.13;;;2.70;99.90;;;;;;5129073;28;20170;-88
2023/01/25 10:29:33;;;;;;;18.30;12.80;;;2.70;99.90;;;;;;5126918;28;20284;-87
2023/01/25 10:32:18;;;;;;;17.57;13.37;;;2.70;99.90;;;;;;5126775;28;20178;-87
2023/01/25 10:34:47;;;;;;;19.93;13.67;;;2.70;99.90;;;;;;5126922;28;20196;-90
2023/01/25 10:37:17;;;;;;;18.57;13.43;;;2.80;99.90;;;;;;5125744;28;20223;-88
2023/01/25 10:39:56;;;;;;;18.33;13.20;;;2.90;99.90;;;;;;5115559;28;20171;-88
2023/01/25 10:42:25;;;;;;;17.30;13.03;;;2.90;99.90;;;;;;5124551;28;20178;-87
2023/01/25 10:44:51;;;;;;;18.33;13.90;;;2.90;99.90;;;;;;5128349;28;20198;-87
2023/01/25 10:47:24;;;;;;;18.17;13.13;;;2.90;99.90;;;;;;5124591;28;20300;-86
2023/01/25 10:49:51;;;;;;;19.13;14.03;;;3.00;99.90;;;;;;5127615;28;20201;-88
2023/01/25 10:52:19;;;;;;;17.27;13.63;;;3.00;99.90;;;;;;5119155;28;20190;-89
2023/01/25 10:54:49;;;;;;;20.17;15.10;;;2.90;99.90;;;;;;5123020;27;20205;-87
2023/01/25 10:57:21;;;;;;;19.17;14.90;;;2.80;99.90;;;;;;5124945;28;20597;-89
2023/01/25 10:59:51;;;;;;;19.93;14.33;;;2.80;99.90;;;;;;5126783;28;20189;-88
2023/01/25 11:02:35;;;;;;;21.80;15.93;;;2.70;99.90;;;;;;5124710;28;20186;-88
2023/01/25 11:05:34;;;;;;;19.73;14.40;;;2.70;99.90;;;;;;5104400;28;20525;-88
2023/01/25 11:08:22;;;;;;;21.43;14.47;;;2.80;99.90;;;;;;5095228;28;20214;-87
2023/01/25 11:10:48;;;;;;;17.33;13.97;;;2.80;99.90;;;;;;5123382;28;20563;-85
2023/01/25 11:13:24;;;;;;;19.60;14.43;;;2.80;99.90;;;;;;5125308;28;20616;-88
2023/01/25 11:16:33;;;;;;;19.60;14.87;;;2.90;99.90;;;;;;5119670;28;20941;-88
2023/01/25 11:19:01;;;;;;;19.87;13.93;;;2.90;99.90;;;;;;5118606;28;20240;-89
2023/01/25 11:21:32;;;;;;;19.17;15.23;;;3.00;99.90;;;;;;5118130;28;20198;-85
2023/01/25 11:24:10;;;;;;;17.93;14.47;;;3.00;99.90;;;;;;5122901;28;20198;-88
2023/01/25 11:26:40;;;;;;;17.60;13.27;;;3.00;99.90;;;;;;5120943;28;20176;-87
2023/01/25 11:29:21;;;;;;;17.90;14.40;;;3.00;99.90;;;;;;5118840;28;20205;-87
2023/01/25 11:31:57;;;;;;;19.47;13.93;;;3.10;99.90;;;;;;5117729;28;20185;-87
2023/01/25 11:34:28;;;;;;;19.13;14.10;;;3.10;99.90;;;;;;5120273;28;20810;-86
2023/01/25 11:37:15;;;;;;;18.77;13.47;;;3.10;99.90;;;;;;5120416;28;20198;-87
2023/01/25 11:39:52;;;;;;;17.93;14.67;;;3.10;99.90;;;;;;5118156;28;20214;-86
2023/01/25 11:42:45;;;;;;;18.47;14.47;;;3.20;99.90;;;;;;5119645;28;20185;-87
2023/01/25 11:45:33;;;;;;;15.30;12.77;;;3.20;99.90;;;;;;5120119;28;20183;-87
2023/01/25 11:48:13;;;;;;;18.43;13.90;;;3.20;99.90;;;;;;5116286;28;20330;-86
2023/01/25 11:50:55;;;;;;;15.90;12.77;;;3.20;99.90;;;;;;5111436;28;20166;-86
2023/01/25 11:53:39;;;;;;;26.07;13.77;;;3.20;99.90;;;;;;5119035;28;20178;-87
2023/01/25 11:56:32;;;;;;;17.90;14.37;;;3.20;99.90;;;;;;5117381;28;20179;-86
2023/01/25 11:59:13;;;;;;;16.97;13.67;;;3.00;99.90;;;;;;5119410;28;20210;-88
2023/01/25 12:01:48;;;;;;;17.97;13.97;;;3.00;99.90;;;;;;5115733;28;20167;-86
2023/01/25 12:04:31;;;;;;;15.80;12.90;;;2.90;99.90;;;;;;5099454;28;20175;-88
2023/01/25 12:07:03;;;;;;;18.97;14.20;;;2.90;99.90;;;;;;5107248;28;20170;-88
2023/01/25 12:09:40;;;;;;;15.87;13.27;;;3.00;99.90;;;;;;5118139;28;20241;-87
2023/01/25 12:12:50;;;;;;;16.93;13.10;;;3.00;99.90;;;;;;5119859;28;20179;-88
2023/01/25 12:15:22;;;;;;;16.73;12.63;;;3.00;99.90;;;;;;5036154;28;20184;-87
2023/01/25 12:18:00;;;;;;;16.20;12.97;;;3.00;99.90;;;;;;5106020;28;20290;-87
2023/01/25 12:20:44;;;;;;;18.37;14.20;;;3.00;99.90;;;;;;5118407;28;20178;-87
2023/01/25 12:23:31;;;;;;;17.73;13.87;;;3.00;99.90;;;;;;5112047;28;20177;-88
2023/01/25 12:26:21;;;;;;;16.97;13.87;;;3.10;99.90;;;;;;5117642;28;20636;-87
2023/01/25 12:28:51;;;;;;;18.87;13.30;;;3.00;99.70;;;;;;5117175;28;20270;-88
2023/01/25 12:31:33;;;;;;;17.47;12.73;;;3.10;99.60;;;;;;5117719;28;20178;-88
2023/01/25 12:34:02;;;;;;;15.23;12.70;;;3.10;99.60;;;;;;5117195;28;20189;-88
2023/01/25 12:36:33;;;;;;;17.70;12.47;;;3.20;99.30;;;;;;5117023;28;20179;-90
2023/01/25 12:39:07;;;;;;;16.50;12.97;;;3.20;99.30;;;;;;5118000;28;20206;-89
2023/01/25 12:41:45;;;;;;;15.40;12.63;;;3.30;99.90;;;;;;5119104;28;20218;-88
2023/01/25 12:44:22;;;;;;;13.77;11.90;;;3.30;97.50;;;;;;5119653;28;20196;-88
2023/01/25 12:47:12;;;;;;;13.57;11.40;;;3.20;97.00;;;;;;5105867;28;20175;-86
2023/01/25 12:49:50;;;;;;;15.57;12.67;;;3.20;96.30;;;;;;5101007;28;20191;-88